East Wellington, Utah
Current Conditions -  °F | °C
As of 5:53 AM on Sunday 23 Nov 2014 (Local Time) from KPUC Reporting Station
Clear Clear  
Wind Chill: 17°   Ceiling: Unl
Heat Index: 28°   Visibility: 10mi
Dew Point: 15°   Wind: 14mph
Humidity: 58%   Direction: 300°WNW
Pressure: 29.93"   Gusts: NA
Location:  39.5265°N, 110.7°W
Report Text: KPUC 231253Z AUTO 30012KT 10SM CLR M02/M09 A2993 RMK AO2 PK WND 30028/1154 SLP170 T10221094 $
Loading
Personal Weather Stations






























Interactive Weather Map New forecast layout! Learn more

10-Day Weather Forecast

Advertisements
Track Severe Weather on mobile